createdAt,value
2018-03-18T00:01:55.996Z,36.71
2018-03-18T00:04:24.361Z,37.62
2018-03-18T00:06:52.734Z,37.37
2018-03-18T00:09:21.116Z,37.47
2018-03-18T00:11:49.497Z,37.67
2018-03-18T00:14:17.864Z,37.21
2018-03-18T00:16:46.242Z,36.96
2018-03-18T00:19:14.637Z,37.29
2018-03-18T00:21:43.008Z,38.05
2018-03-18T00:24:11.545Z,37.60
2018-03-18T00:26:40.018Z,37.26
2018-03-18T00:29:08.381Z,37.29
2018-03-18T00:31:36.744Z,37.99
2018-03-18T00:34:05.104Z,37.48
2018-03-18T00:36:33.504Z,36.99
2018-03-18T00:39:01.859Z,37.14
2018-03-18T00:41:30.953Z,37.48
2018-03-18T00:43:59.352Z,37.91
2018-03-18T00:46:27.711Z,37.34
2018-03-18T00:48:56.150Z,37.98
2018-03-18T00:51:42.271Z,37.33
2018-03-18T00:54:11.076Z,37.61
2018-03-18T00:56:39.400Z,37.81
2018-03-18T00:59:07.772Z,37.57
2018-03-18T01:01:36.147Z,37.69
2018-03-18T01:04:04.932Z,37.71
2018-03-18T01:06:33.307Z,38.19
2018-03-18T01:09:01.664Z,38.01
2018-03-18T01:11:30.044Z,38.22
2018-03-18T01:13:58.420Z,38.22
2018-03-18T01:16:26.796Z,37.85
2018-03-18T01:18:55.180Z,37.84
2018-03-18T01:21:23.540Z,37.94
2018-03-18T01:23:51.966Z,37.64
2018-03-18T01:26:20.328Z,36.62
2018-03-18T01:28:48.688Z,37.29
2018-03-18T01:31:17.113Z,37.25
2018-03-18T01:33:45.491Z,37.44
2018-03-18T01:36:14.280Z,37.94
2018-03-18T01:38:42.643Z,37.94
2018-03-18T01:41:11.036Z,38.03
2018-03-18T01:43:39.810Z,38.27
2018-03-18T01:46:08.175Z,38.58
2018-03-18T01:48:36.529Z,37.33
2018-03-18T01:51:04.929Z,36.87
2018-03-18T01:53:33.338Z,36.31
2018-03-18T01:56:01.707Z,37.49
2018-03-18T01:58:31.678Z,37.52
2018-03-18T02:01:00.071Z,36.44
2018-03-18T02:03:28.435Z,37.20
2018-03-18T02:05:56.803Z,36.55
2018-03-18T02:08:25.191Z,36.92
2018-03-18T02:10:53.591Z,37.06
2018-03-18T02:13:21.988Z,36.68
2018-03-18T02:15:50.361Z,36.58
2018-03-18T02:18:18.744Z,37.26
2018-03-18T02:20:47.145Z,36.71
2018-03-18T02:23:16.027Z,37.02
2018-03-18T02:25:44.421Z,37.10
2018-03-18T02:28:12.810Z,36.76
2018-03-18T02:30:41.597Z,37.46
2018-03-18T02:33:09.958Z,37.48
2018-03-18T02:35:38.348Z,37.85
2018-03-18T02:38:07.145Z,37.02
2018-03-18T02:40:35.856Z,37.73
2018-03-18T02:43:04.253Z,37.76
2018-03-18T02:45:32.635Z,36.76
2018-03-18T02:48:01.019Z,36.29
2018-03-18T02:50:29.398Z,37.81
2018-03-18T02:52:57.816Z,37.77
2018-03-18T02:55:26.608Z,37.71
2018-03-18T02:57:55.394Z,37.63
2018-03-18T03:00:24.200Z,37.44
2018-03-18T03:02:53.125Z,37.20
2018-03-18T03:05:21.558Z,36.78
2018-03-18T03:07:50.427Z,37.15
2018-03-18T03:10:18.821Z,37.64
2018-03-18T03:12:47.188Z,37.41
2018-03-18T03:15:15.572Z,36.79
2018-03-18T03:17:43.952Z,37.40
2018-03-18T03:20:12.344Z,37.15
2018-03-18T03:22:40.801Z,37.66
2018-03-18T03:25:09.200Z,36.83
2018-03-18T03:27:37.985Z,37.01
2018-03-18T03:30:06.866Z,37.59
2018-03-18T03:32:35.258Z,37.83
2018-03-18T03:35:04.061Z,37.49
2018-03-18T03:37:32.840Z,38.11
2018-03-18T03:40:01.629Z,37.70
2018-03-18T03:42:30.036Z,37.57
2018-03-18T03:44:58.416Z,38.03
2018-03-18T03:47:26.828Z,38.62
2018-03-18T03:49:55.228Z,38.39
2018-03-18T03:52:23.603Z,38.52
2018-03-18T03:54:52.730Z,39.32
2018-03-18T03:57:21.535Z,38.50
2018-03-18T03:59:50.290Z,38.72
2018-03-18T04:02:18.869Z,39.16
2018-03-18T04:04:47.645Z,39.61
2018-03-18T04:07:16.042Z,39.86
2018-03-18T04:09:44.823Z,38.32
2018-03-18T04:12:13.203Z,38.52
2018-03-18T04:14:42.118Z,39.11
2018-03-18T04:17:10.563Z,39.55
2018-03-18T04:19:39.055Z,39.56
2018-03-18T04:22:07.567Z,39.41
2018-03-18T04:24:35.952Z,39.51
2018-03-18T04:27:04.399Z,39.25
2018-03-18T04:29:32.781Z,38.78
2018-03-18T04:32:01.573Z,39.26
2018-03-18T04:34:30.368Z,39.45
2018-03-18T04:36:59.177Z,39.24
2018-03-18T04:39:27.552Z,39.58
2018-03-18T04:41:55.971Z,39.47
2018-03-18T04:44:24.367Z,38.89
2018-03-18T04:46:52.797Z,39.05
2018-03-18T04:49:21.166Z,39.84
2018-03-18T04:51:49.589Z,39.83
2018-03-18T04:54:17.997Z,39.30
2018-03-18T04:56:46.479Z,39.80
2018-03-18T04:59:14.909Z,39.30
2018-03-18T05:01:43.681Z,39.23
2018-03-18T05:04:12.084Z,39.35
2018-03-18T05:06:40.479Z,40.21
2018-03-18T05:09:09.056Z,40.55
2018-03-18T05:11:37.446Z,40.38
2018-03-18T05:14:05.845Z,39.86
2018-03-18T05:16:34.238Z,40.13
2018-03-18T05:19:03.020Z,40.49
2018-03-18T05:21:31.399Z,39.95
2018-03-18T05:24:00.183Z,40.19
2018-03-18T05:26:28.574Z,40.93
2018-03-18T05:28:57.354Z,40.01
2018-03-18T05:31:26.151Z,40.33
2018-03-18T05:33:54.539Z,40.33
2018-03-18T05:36:22.926Z,39.85
2018-03-18T05:38:51.312Z,40.43
2018-03-18T05:41:19.708Z,39.77
2018-03-18T05:43:48.076Z,38.71
2018-03-18T05:46:16.452Z,37.84
2018-03-18T05:48:45.208Z,36.82
2018-03-18T05:51:13.580Z,35.24
2018-03-18T05:53:41.951Z,35.28
2018-03-18T05:56:10.336Z,34.25
2018-03-18T05:58:38.693Z,33.12
2018-03-18T06:01:07.072Z,31.69
2018-03-18T06:03:35.428Z,31.72
2018-03-18T06:06:03.780Z,31.10
2018-03-18T06:08:32.540Z,31.76
2018-03-18T06:11:00.893Z,31.20
2018-03-18T06:13:29.250Z,31.16
2018-03-18T06:15:57.609Z,30.53
2018-03-18T06:18:26.356Z,30.25
2018-03-18T06:20:54.758Z,30.84
2018-03-18T06:23:23.119Z,30.69
2018-03-18T06:25:51.492Z,31.84
2018-03-18T06:28:19.859Z,30.62
2018-03-18T06:30:48.228Z,29.50
2018-03-18T06:33:17.185Z,29.02
2018-03-18T06:35:45.944Z,28.53
2018-03-18T06:38:14.292Z,28.60
2018-03-18T06:40:42.684Z,29.54
2018-03-18T06:43:11.043Z,27.98
2018-03-18T06:45:39.435Z,26.94
2018-03-18T06:48:07.784Z,26.20
2018-03-18T06:50:36.154Z,26.03
2018-03-18T06:53:04.912Z,26.56
2018-03-18T06:55:33.259Z,27.60
2018-03-18T06:58:01.608Z,26.86
2018-03-18T07:00:30.032Z,27.47
2018-03-18T07:02:59.201Z,27.99
2018-03-18T07:05:27.582Z,27.81
2018-03-18T07:07:55.923Z,26.95
2018-03-18T07:10:24.676Z,27.39
2018-03-18T07:12:53.026Z,27.56
2018-03-18T07:15:21.492Z,27.02
2018-03-18T07:17:49.849Z,25.99
2018-03-18T07:20:18.621Z,25.58
2018-03-18T07:22:47.387Z,24.04
2018-03-18T07:25:15.759Z,25.74
2018-03-18T07:27:44.112Z,27.32
2018-03-18T07:30:12.643Z,26.48
2018-03-18T07:32:41.016Z,27.11
2018-03-18T07:35:09.379Z,26.55
2018-03-18T07:37:37.729Z,24.57
2018-03-18T07:40:06.112Z,22.96
2018-03-18T07:42:34.472Z,23.54
2018-03-18T07:45:02.823Z,23.31
2018-03-18T07:47:32.375Z,23.75
2018-03-18T07:50:00.789Z,24.25
2018-03-18T07:52:29.153Z,24.50
2018-03-18T07:54:57.504Z,23.78
2018-03-18T07:57:25.863Z,23.39
2018-03-18T07:59:54.600Z,23.62
2018-03-18T08:02:22.951Z,24.05
2018-03-18T08:04:51.304Z,23.56
2018-03-18T08:07:20.168Z,22.76
2018-03-18T08:09:48.512Z,23.02
2018-03-18T08:12:16.870Z,23.16
2018-03-18T08:14:45.232Z,23.08
2018-03-18T08:17:13.584Z,22.28
2018-03-18T08:19:42.355Z,22.20
2018-03-18T08:22:10.712Z,21.32
2018-03-18T08:24:39.058Z,20.61
2018-03-18T08:27:07.433Z,21.72
2018-03-18T08:29:35.783Z,21.81
2018-03-18T08:32:04.140Z,21.84
2018-03-18T08:34:32.590Z,20.85
2018-03-18T08:37:00.939Z,20.10
2018-03-18T08:39:29.686Z,20.05
2018-03-18T08:41:58.055Z,21.00
2018-03-18T08:44:26.400Z,21.19
2018-03-18T08:46:54.759Z,21.01
2018-03-18T08:49:23.504Z,21.70
2018-03-18T08:51:51.876Z,21.63
2018-03-18T08:54:20.252Z,21.30
2018-03-18T08:56:48.612Z,20.60
2018-03-18T08:59:16.997Z,19.84
2018-03-18T09:01:45.359Z,20.74
2018-03-18T09:04:14.160Z,21.93
2018-03-18T09:06:42.564Z,21.15
2018-03-18T09:09:10.932Z,21.24
2018-03-18T09:11:39.285Z,20.99
2018-03-18T09:14:07.628Z,20.73
2018-03-18T09:16:35.981Z,20.04
2018-03-18T09:19:04.345Z,20.01
2018-03-18T09:21:33.648Z,19.69
2018-03-18T09:24:02.005Z,19.95
2018-03-18T09:26:30.368Z,20.83
2018-03-18T09:28:59.131Z,20.46
2018-03-18T09:31:27.484Z,19.78
2018-03-18T09:33:55.867Z,19.06
2018-03-18T09:36:24.235Z,18.90
2018-03-18T09:38:52.701Z,18.59
2018-03-18T09:41:21.115Z,18.16
2018-03-18T09:43:49.456Z,18.17
2018-03-18T09:46:17.860Z,19.15
2018-03-18T09:48:46.236Z,20.11
2018-03-18T09:51:14.591Z,19.29
2018-03-18T09:53:42.939Z,18.78
2018-03-18T09:56:11.749Z,19.02
2018-03-18T09:58:40.088Z,18.71
2018-03-18T10:01:08.518Z,18.15
2018-03-18T10:03:36.862Z,18.58
2018-03-18T10:06:05.608Z,17.69
2018-03-18T10:08:33.965Z,17.74
2018-03-18T10:11:02.323Z,17.55
2018-03-18T10:13:30.726Z,18.11
2018-03-18T10:15:59.104Z,18.65
2018-03-18T10:18:27.452Z,18.37
2018-03-18T10:20:56.205Z,18.09
2018-03-18T10:23:24.557Z,18.50
2018-03-18T10:25:52.920Z,19.51
2018-03-18T10:28:21.267Z,19.06
2018-03-18T10:30:50.040Z,18.86
2018-03-18T10:33:18.787Z,18.72
2018-03-18T10:35:47.164Z,18.80
2018-03-18T10:38:15.511Z,19.23
2018-03-18T10:40:43.869Z,19.28
2018-03-18T10:43:12.239Z,19.56
2018-03-18T10:45:40.605Z,19.45
2018-03-18T10:48:08.965Z,19.63
2018-03-18T10:50:37.335Z,19.72
2018-03-18T10:53:05.692Z,19.97
2018-03-18T10:55:34.052Z,19.84
2018-03-18T10:58:02.791Z,19.85
2018-03-18T11:00:36.610Z,19.92
2018-03-18T11:03:04.960Z,19.51
2018-03-18T11:05:33.315Z,19.80
2018-03-18T11:08:01.728Z,19.85
2018-03-18T11:10:30.152Z,20.16
2018-03-18T11:12:59.016Z,20.14
2018-03-18T11:15:27.413Z,19.64
2018-03-18T11:17:55.756Z,20.19
2018-03-18T11:20:24.206Z,21.02
2018-03-18T11:22:52.596Z,21.14
2018-03-18T11:25:21.014Z,21.32
2018-03-18T11:27:49.375Z,22.17
2018-03-18T11:30:17.744Z,22.31
2018-03-18T11:32:46.095Z,22.42
2018-03-18T11:35:14.493Z,22.47
2018-03-18T11:40:17.615Z,23.50
2018-03-18T11:42:45.996Z,22.96
2018-03-18T11:45:14.364Z,22.92
2018-03-18T11:47:42.717Z,22.98
2018-03-18T11:50:11.132Z,23.67
2018-03-18T11:52:39.508Z,23.38
2018-03-18T11:55:07.879Z,23.54
2018-03-18T11:57:36.271Z,23.61
2018-03-18T12:00:04.657Z,23.47
2018-03-18T12:02:33.004Z,23.48
2018-03-18T12:05:01.360Z,23.31
2018-03-18T12:07:29.739Z,23.50
2018-03-18T12:09:58.087Z,23.38
2018-03-18T12:12:26.445Z,23.48
2018-03-18T12:14:54.787Z,23.37
2018-03-18T12:17:23.149Z,24.07
2018-03-18T12:19:51.504Z,23.74
2018-03-18T12:22:19.907Z,24.12
2018-03-18T12:24:48.247Z,23.51
2018-03-18T12:27:16.608Z,23.85
2018-03-18T12:29:45.004Z,23.60
2018-03-18T12:32:13.368Z,22.85
2018-03-18T12:34:41.716Z,23.05
2018-03-18T12:37:10.084Z,23.20
2018-03-18T12:39:56.216Z,23.31
2018-03-18T12:42:42.256Z,23.55
2018-03-18T12:45:11.080Z,23.56
2018-03-18T12:47:39.580Z,23.29
2018-03-18T12:50:07.934Z,23.27
2018-03-18T12:52:36.292Z,22.99
2018-03-18T12:55:04.643Z,22.87
2018-03-18T12:57:33.004Z,23.04
2018-03-18T13:00:01.365Z,23.01
2018-03-18T13:02:29.719Z,22.65
2018-03-18T13:04:58.083Z,22.46
2018-03-18T13:07:26.839Z,23.71
2018-03-18T13:09:55.202Z,23.34
2018-03-18T13:12:23.567Z,23.25
2018-03-18T13:14:51.924Z,22.66
2018-03-18T13:17:20.343Z,22.60
2018-03-18T13:19:48.731Z,22.24
2018-03-18T13:22:17.144Z,22.01
2018-03-18T13:24:45.564Z,22.17
2018-03-18T13:27:14.271Z,22.21
2018-03-18T13:29:42.648Z,21.99
2018-03-18T13:32:11.013Z,21.86
2018-03-18T13:34:39.369Z,21.43
2018-03-18T13:37:07.780Z,21.14
2018-03-18T13:39:36.133Z,21.66
2018-03-18T13:42:04.526Z,21.70
2018-03-18T13:44:32.872Z,21.81
2018-03-18T13:47:01.231Z,21.55
2018-03-18T13:49:29.984Z,21.34
2018-03-18T13:51:58.340Z,21.80
2018-03-18T13:54:26.703Z,21.09
2018-03-18T13:56:55.059Z,21.47
2018-03-18T13:59:23.812Z,21.67
2018-03-18T14:01:52.169Z,21.96
2018-03-18T14:04:20.531Z,21.99
2018-03-18T14:06:48.912Z,21.88
2018-03-18T14:09:17.264Z,21.33
2018-03-18T14:11:46.031Z,20.91
2018-03-18T14:14:14.377Z,20.84
2018-03-18T14:16:42.736Z,21.25
2018-03-18T14:19:11.100Z,21.35
2018-03-18T14:21:39.459Z,21.94
2018-03-18T14:24:08.203Z,21.63
2018-03-18T14:26:36.564Z,21.24
2018-03-18T15:18:06.823Z,21.28
2018-03-18T15:20:35.175Z,21.12
2018-03-18T15:23:03.514Z,21.08
2018-03-18T15:25:32.274Z,21.28
2018-03-18T15:28:00.623Z,21.17
2018-03-18T15:30:28.992Z,20.97
2018-03-18T15:32:57.345Z,21.23
2018-03-18T15:35:25.788Z,21.38
2018-03-18T15:37:54.140Z,21.33
2018-03-18T15:40:22.533Z,21.99
2018-03-18T15:42:50.907Z,21.99
2018-03-18T15:45:19.296Z,21.85
2018-03-18T15:47:47.710Z,21.01
2018-03-18T15:50:16.024Z,21.32
2018-03-18T15:52:44.377Z,21.53
2018-03-18T15:55:12.784Z,21.30
2018-03-18T15:57:41.215Z,21.17
2018-03-18T16:00:09.964Z,21.20
2018-03-18T16:02:38.342Z,21.36
2018-03-18T16:05:06.798Z,21.61
2018-03-18T16:07:35.207Z,21.63
2018-03-18T16:10:03.579Z,21.49
2018-03-18T16:12:32.044Z,20.89
2018-03-18T16:15:00.558Z,21.27
2018-03-18T16:17:29.057Z,21.23
2018-03-18T16:19:57.569Z,21.18
2018-03-18T16:22:26.081Z,21.32
2018-03-18T16:24:54.529Z,21.70
2018-03-18T16:27:23.032Z,22.14
2018-03-18T16:30:09.246Z,22.12
2018-03-18T16:32:37.780Z,22.28
2018-03-18T16:35:06.269Z,22.03
2018-03-18T16:37:34.720Z,21.86
2018-03-18T16:40:03.629Z,21.79
2018-03-18T16:42:32.148Z,21.83
2018-03-18T16:45:00.652Z,22.02
2018-03-18T16:47:29.129Z,21.70
2018-03-18T16:52:22.703Z,22.33
2018-03-18T16:55:05.438Z,22.09
2018-03-18T16:57:35.586Z,21.92
2018-03-18T17:00:16.397Z,22.32
2018-03-18T17:02:45.260Z,22.63
2018-03-18T17:05:43.675Z,22.70
2018-03-18T17:08:24.277Z,23.25
2018-03-18T17:11:11.606Z,23.09
2018-03-18T17:14:00.531Z,23.51
2018-03-18T17:16:36.587Z,23.72
2018-03-18T17:19:20.632Z,23.27
2018-03-18T17:25:18.488Z,23.44
2018-03-18T17:27:47.985Z,23.57
2018-03-18T17:30:16.518Z,24.01
2018-03-18T17:32:45.939Z,24.10
2018-03-18T17:35:14.408Z,23.65
2018-03-18T17:37:43.153Z,23.14
2018-03-18T17:40:12.191Z,23.58
2018-03-18T17:42:40.945Z,23.37
2018-03-18T17:45:27.632Z,23.65
2018-03-18T17:48:13.616Z,23.45
2018-03-18T17:51:00.464Z,23.28
2018-03-18T17:53:46.662Z,23.99
2018-03-18T17:56:33.696Z,24.14
2018-03-18T18:01:35.220Z,24.34
2018-03-18T18:04:04.276Z,24.51
2018-03-18T18:06:32.844Z,24.37
2018-03-18T18:09:01.886Z,24.01
2018-03-18T18:11:31.011Z,24.36
2018-03-18T18:14:00.000Z,24.49
2018-03-18T18:16:29.827Z,24.39
2018-03-18T18:18:58.584Z,23.99
2018-03-18T18:21:27.749Z,24.75
2018-03-18T18:24:04.980Z,24.90
2018-03-18T18:26:33.820Z,25.48
2018-03-18T18:31:36.146Z,24.86
2018-03-18T18:34:05.170Z,25.61
2018-03-18T18:36:34.672Z,25.46
2018-03-18T18:39:03.265Z,25.44
2018-03-18T18:41:32.160Z,25.24
2018-03-18T18:44:01.055Z,25.59
2018-03-18T18:46:29.794Z,25.39
2018-03-18T18:48:58.665Z,24.89
2018-03-18T18:51:27.188Z,25.41
2018-03-18T18:53:55.726Z,25.34
2018-03-18T18:56:24.517Z,25.39
2018-03-18T18:58:53.444Z,25.54
2018-03-18T19:01:22.692Z,25.29
2018-03-18T19:03:51.287Z,25.12
2018-03-18T19:06:20.409Z,25.19
2018-03-18T19:08:49.561Z,25.30
2018-03-18T19:11:18.386Z,25.07
2018-03-18T19:13:47.122Z,25.15
2018-03-18T19:16:15.803Z,25.45
2018-03-18T19:18:45.273Z,25.46
2018-03-18T19:21:13.838Z,25.62
2018-03-18T19:23:42.629Z,26.11
2018-03-18T19:26:11.730Z,26.21
2018-03-18T19:28:40.664Z,25.99
2018-03-18T19:31:09.290Z,26.05
2018-03-18T19:33:38.315Z,25.89
2018-03-18T19:36:06.952Z,25.77
2018-03-18T19:38:35.477Z,26.07
2018-03-18T19:41:04.576Z,26.54
2018-03-18T19:43:33.398Z,26.23
2018-03-18T19:46:02.762Z,26.63
2018-03-18T19:48:31.348Z,26.34
2018-03-18T19:51:00.153Z,26.33
2018-03-18T19:53:28.592Z,26.00
2018-03-18T19:55:57.328Z,26.03
2018-03-18T19:58:25.970Z,25.74
2018-03-18T20:00:54.806Z,26.69
2018-03-18T20:03:23.593Z,26.64
2018-03-18T20:05:52.373Z,26.79
2018-03-18T20:08:21.163Z,26.63
2018-03-18T20:10:50.015Z,26.87
2018-03-18T20:13:27.270Z,26.91
2018-03-18T20:15:56.084Z,26.79
2018-03-18T20:18:24.857Z,26.78
2018-03-18T20:20:57.228Z,26.77
2018-03-18T20:23:26.640Z,26.88
2018-03-18T20:29:27.743Z,27.30
2018-03-18T20:31:56.313Z,26.85
2018-03-18T20:34:24.973Z,26.75
2018-03-18T20:36:53.901Z,26.96
2018-03-18T20:39:23.596Z,26.80
2018-03-18T20:41:53.357Z,26.63
2018-03-18T20:44:22.751Z,27.03
2018-03-18T20:46:53.293Z,27.73
2018-03-18T20:49:22.588Z,27.62
2018-03-18T20:51:51.354Z,26.84
2018-03-18T20:54:22.223Z,27.47
2018-03-18T20:56:50.728Z,27.75
2018-03-18T20:59:21.175Z,28.44
2018-03-18T21:01:51.264Z,28.10
2018-03-18T21:04:20.690Z,28.29
2018-03-18T21:06:51.994Z,28.35
2018-03-18T21:09:21.112Z,27.85
2018-03-18T21:11:50.526Z,27.80
2018-03-18T21:14:19.263Z,27.67
2018-03-18T21:16:48.044Z,27.98
2018-03-18T21:19:16.544Z,27.98
2018-03-18T21:21:45.094Z,28.11
2018-03-18T21:24:13.833Z,28.08
2018-03-18T21:26:42.651Z,28.02
2018-03-18T21:29:11.417Z,28.01
2018-03-18T21:31:40.653Z,28.29
2018-03-18T21:34:09.481Z,27.81
2018-03-18T21:36:37.954Z,27.64
2018-03-18T21:39:06.476Z,28.35
2018-03-18T21:41:36.036Z,28.22
2018-03-18T21:44:04.683Z,28.25
2018-03-18T21:46:34.125Z,28.03
2018-03-18T21:49:02.961Z,28.11
2018-03-18T21:51:31.824Z,28.48
2018-03-18T21:54:00.590Z,28.19
2018-03-18T21:56:29.209Z,28.22
2018-03-18T21:58:58.341Z,28.48
2018-03-18T22:01:27.244Z,28.94
2018-03-18T22:03:56.545Z,28.51
2018-03-18T22:06:25.986Z,29.01
2018-03-18T22:08:55.587Z,29.18
2018-03-18T22:11:24.567Z,29.07
2018-03-18T22:13:53.276Z,28.61
2018-03-18T22:16:22.448Z,28.49
2018-03-18T22:18:51.309Z,28.76
2018-03-18T22:21:19.908Z,29.00
2018-03-18T22:23:49.546Z,28.45
2018-03-18T22:26:18.839Z,28.97
2018-03-18T22:28:47.860Z,28.95
2018-03-18T22:31:16.778Z,29.41
2018-03-18T22:33:46.205Z,29.26
2018-03-18T22:36:15.754Z,29.32
2018-03-18T22:38:44.606Z,29.08
2018-03-18T22:41:13.626Z,29.55
2018-03-18T22:43:42.339Z,29.62
2018-03-18T22:46:11.507Z,29.47
2018-03-18T22:48:41.495Z,29.15
2018-03-18T22:51:11.779Z,28.89
2018-03-18T22:53:41.016Z,29.58
2018-03-18T22:56:09.959Z,29.97
2018-03-18T22:58:38.862Z,30.17
2018-03-18T23:01:07.837Z,29.74
2018-03-18T23:03:37.456Z,30.50
2018-03-18T23:06:06.365Z,29.95
2018-03-18T23:08:35.205Z,30.13
2018-03-18T23:11:04.719Z,30.16
2018-03-18T23:13:33.593Z,30.33
2018-03-18T23:16:02.364Z,30.35
2018-03-18T23:18:31.149Z,30.75
2018-03-18T23:21:00.552Z,30.71
2018-03-18T23:23:29.398Z,30.69
2018-03-18T23:25:57.958Z,30.45
2018-03-18T23:28:27.289Z,31.20
2018-03-18T23:30:57.287Z,31.23
2018-03-18T23:33:26.099Z,31.10
2018-03-18T23:35:54.816Z,32.07
2018-03-18T23:38:23.932Z,31.41
2018-03-18T23:40:52.726Z,31.09
2018-03-18T23:43:21.467Z,31.32
2018-03-18T23:45:51.384Z,31.03
2018-03-18T23:48:20.013Z,30.39
2018-03-18T23:50:49.219Z,30.56
2018-03-18T23:53:18.242Z,30.72
2018-03-18T23:55:47.263Z,30.88
2018-03-18T23:58:16.063Z,31.19
